sensor_id;sensor_type;location;lat;lon;timestamp;temperature;humidity
7844;DHT22;3967;48.702;9.326;2022-10-23T00:01:31;13.30;99.90
7844;DHT22;3967;48.702;9.326;2022-10-23T00:04:04;13.30;99.90
7844;DHT22;3967;48.702;9.326;2022-10-23T00:06:33;13.30;99.90
7844;DHT22;3967;48.702;9.326;2022-10-23T00:09:01;13.30;99.90
7844;DHT22;3967;48.702;9.326;2022-10-23T00:11:29;13.20;99.90
7844;DHT22;3967;48.702;9.326;2022-10-23T00:13:58;13.20;99.90
7844;DHT22;3967;48.702;9.326;2022-10-23T00:16:26;13.20;99.90
7844;DHT22;3967;48.702;9.326;2022-10-23T00:18:53;13.20;99.90
7844;DHT22;3967;48.702;9.326;2022-10-23T00:21:20;13.10;99.90
7844;DHT22;3967;48.702;9.326;2022-10-23T00:23:47;13.10;99.90
7844;DHT22;3967;48.702;9.326;2022-10-23T00:26:14;13.10;99.90
7844;DHT22;3967;48.702;9.326;2022-10-23T00:28:43;13.10;99.90
7844;DHT22;3967;48.702;9.326;2022-10-23T00:31:10;13.10;99.90
7844;DHT22;3967;48.702;9.326;2022-10-23T00:33:37;13.00;99.90
7844;DHT22;3967;48.702;9.326;2022-10-23T00:36:08;13.00;99.90
7844;DHT22;3967;48.702;9.326;2022-10-23T00:38:36;13.00;99.90
7844;DHT22;3967;48.702;9.326;2022-10-23T00:41:03;13.00;99.90
7844;DHT22;3967;48.702;9.326;2022-10-23T00:43:31;13.00;99.90
7844;DHT22;3967;48.702;9.326;2022-10-23T00:45:58;12.90;99.90
7844;DHT22;3967;48.702;9.326;2022-10-23T00:48:25;12.90;99.90
7844;DHT22;3967;48.702;9.326;2022-10-23T00:50:52;12.90;99.90
7844;DHT22;3967;48.702;9.326;2022-10-23T00:53:20;12.90;99.90
7844;DHT22;3967;48.702;9.326;2022-10-23T00:55:48;12.90;99.90
7844;DHT22;3967;48.702;9.326;2022-10-23T00:58:18;12.80;99.90
7844;DHT22;3967;48.702;9.326;2022-10-23T01:00:51;12.70;99.90
7844;DHT22;3967;48.702;9.326;2022-10-23T01:03:19;12.70;99.90
7844;DHT22;3967;48.702;9.326;2022-10-23T01:05:59;12.70;99.90
7844;DHT22;3967;48.702;9.326;2022-10-23T01:08:33;12.60;99.90
7844;DHT22;3967;48.702;9.326;2022-10-23T01:11:11;12.70;99.90
7844;DHT22;3967;48.702;9.326;2022-10-23T01:13:43;12.60;99.90
7844;DHT22;3967;48.702;9.326;2022-10-23T01:21:28;12.60;99.90
7844;DHT22;3967;48.702;9.326;2022-10-23T01:32:11;12.60;99.90
7844;DHT22;3967;48.702;9.326;2022-10-23T01:34:45;12.60;99.90
7844;DHT22;3967;48.702;9.326;2022-10-23T01:37:19;12.50;99.90
7844;DHT22;3967;48.702;9.326;2022-10-23T01:39:51;12.60;99.90
7844;DHT22;3967;48.702;9.326;2022-10-23T01:42:24;12.60;99.90
7844;DHT22;3967;48.702;9.326;2022-10-23T01:45:00;12.50;99.90
7844;DHT22;3967;48.702;9.326;2022-10-23T01:47:32;12.50;99.90
7844;DHT22;3967;48.702;9.326;2022-10-23T01:50:00;12.40;99.90
7844;DHT22;3967;48.702;9.326;2022-10-23T01:52:27;12.40;99.90
7844;DHT22;3967;48.702;9.326;2022-10-23T01:54:57;12.40;99.90
7844;DHT22;3967;48.702;9.326;2022-10-23T01:57:27;12.40;99.90
7844;DHT22;3967;48.702;9.326;2022-10-23T02:00:13;12.40;99.90
7844;DHT22;3967;48.702;9.326;2022-10-23T02:02:40;12.30;99.90
7844;DHT22;3967;48.702;9.326;2022-10-23T02:05:09;12.40;99.90
7844;DHT22;3967;48.702;9.326;2022-10-23T02:07:37;12.40;99.90
7844;DHT22;3967;48.702;9.326;2022-10-23T02:10:05;12.40;99.90
7844;DHT22;3967;48.702;9.326;2022-10-23T02:12:57;12.40;99.90
7844;DHT22;3967;48.702;9.326;2022-10-23T02:15:36;12.40;99.90
7844;DHT22;3967;48.702;9.326;2022-10-23T02:18:19;12.30;99.90
7844;DHT22;3967;48.702;9.326;2022-10-23T02:23:36;12.30;99.90
7844;DHT22;3967;48.702;9.326;2022-10-23T02:26:11;12.30;99.90
7844;DHT22;3967;48.702;9.326;2022-10-23T02:28:46;12.30;99.90
7844;DHT22;3967;48.702;9.326;2022-10-23T02:31:16;12.30;99.90
7844;DHT22;3967;48.702;9.326;2022-10-23T02:33:45;12.20;99.90
7844;DHT22;3967;48.702;9.326;2022-10-23T02:36:13;12.20;99.90
7844;DHT22;3967;48.702;9.326;2022-10-23T02:38:42;12.20;99.90
7844;DHT22;3967;48.702;9.326;2022-10-23T02:46:52;12.10;99.90
7844;DHT22;3967;48.702;9.326;2022-10-23T02:49:37;12.10;99.90
7844;DHT22;3967;48.702;9.326;2022-10-23T02:52:26;12.00;99.90
7844;DHT22;3967;48.702;9.326;2022-10-23T02:55:10;12.00;99.90
7844;DHT22;3967;48.702;9.326;2022-10-23T02:58:04;12.00;99.90
7844;DHT22;3967;48.702;9.326;2022-10-23T03:00:36;12.00;99.90
7844;DHT22;3967;48.702;9.326;2022-10-23T03:03:15;12.00;99.90
7844;DHT22;3967;48.702;9.326;2022-10-23T03:05:43;12.00;99.90
7844;DHT22;3967;48.702;9.326;2022-10-23T03:08:12;12.00;99.90
7844;DHT22;3967;48.702;9.326;2022-10-23T03:10:40;11.90;99.90
7844;DHT22;3967;48.702;9.326;2022-10-23T03:13:09;12.00;99.90
7844;DHT22;3967;48.702;9.326;2022-10-23T03:15:35;11.90;99.90
7844;DHT22;3967;48.702;9.326;2022-10-23T03:18:02;11.90;99.90
7844;DHT22;3967;48.702;9.326;2022-10-23T03:20:29;11.90;99.90
7844;DHT22;3967;48.702;9.326;2022-10-23T03:22:56;11.90;99.90
7844;DHT22;3967;48.702;9.326;2022-10-23T03:25:22;11.90;99.90
7844;DHT22;3967;48.702;9.326;2022-10-23T03:27:49;11.90;99.90
7844;DHT22;3967;48.702;9.326;2022-10-23T03:30:16;11.90;99.90
7844;DHT22;3967;48.702;9.326;2022-10-23T03:32:42;11.90;99.90
7844;DHT22;3967;48.702;9.326;2022-10-23T03:35:10;11.90;99.90
7844;DHT22;3967;48.702;9.326;2022-10-23T03:37:36;11.90;99.90
7844;DHT22;3967;48.702;9.326;2022-10-23T03:40:03;12.00;99.90
7844;DHT22;3967;48.702;9.326;2022-10-23T03:42:30;11.90;99.90
7844;DHT22;3967;48.702;9.326;2022-10-23T03:44:57;12.00;99.90
7844;DHT22;3967;48.702;9.326;2022-10-23T03:47:23;12.00;99.90
7844;DHT22;3967;48.702;9.326;2022-10-23T03:49:50;11.90;99.90
7844;DHT22;3967;48.702;9.326;2022-10-23T03:52:17;11.90;99.90
7844;DHT22;3967;48.702;9.326;2022-10-23T03:54:43;12.00;99.90
7844;DHT22;3967;48.702;9.326;2022-10-23T03:57:10;12.00;99.90
7844;DHT22;3967;48.702;9.326;2022-10-23T03:59:37;12.00;99.90
7844;DHT22;3967;48.702;9.326;2022-10-23T04:02:03;11.90;99.90
7844;DHT22;3967;48.702;9.326;2022-10-23T04:04:30;11.90;99.90
7844;DHT22;3967;48.702;9.326;2022-10-23T04:06:57;11.90;99.90
7844;DHT22;3967;48.702;9.326;2022-10-23T04:09:23;11.90;99.90
7844;DHT22;3967;48.702;9.326;2022-10-23T04:11:50;11.90;99.90
7844;DHT22;3967;48.702;9.326;2022-10-23T04:14:17;11.90;99.90
7844;DHT22;3967;48.702;9.326;2022-10-23T04:16:43;11.90;99.90
7844;DHT22;3967;48.702;9.326;2022-10-23T04:19:10;11.90;99.90
7844;DHT22;3967;48.702;9.326;2022-10-23T04:21:37;11.90;99.90
7844;DHT22;3967;48.702;9.326;2022-10-23T04:24:04;11.80;99.90
7844;DHT22;3967;48.702;9.326;2022-10-23T04:26:30;11.90;99.90
7844;DHT22;3967;48.702;9.326;2022-10-23T04:28:57;11.90;99.90
7844;DHT22;3967;48.702;9.326;2022-10-23T04:31:24;11.90;99.90
7844;DHT22;3967;48.702;9.326;2022-10-23T04:33:50;11.80;99.90
7844;DHT22;3967;48.702;9.326;2022-10-23T04:36:17;11.90;99.90
7844;DHT22;3967;48.702;9.326;2022-10-23T04:38:44;11.90;99.90
7844;DHT22;3967;48.702;9.326;2022-10-23T04:41:10;11.90;99.90
7844;DHT22;3967;48.702;9.326;2022-10-23T04:43:37;11.90;99.90
7844;DHT22;3967;48.702;9.326;2022-10-23T04:46:04;11.80;99.90
7844;DHT22;3967;48.702;9.326;2022-10-23T04:48:31;11.80;99.90
7844;DHT22;3967;48.702;9.326;2022-10-23T04:51:00;11.90;99.90
7844;DHT22;3967;48.702;9.326;2022-10-23T04:53:27;11.80;99.90
7844;DHT22;3967;48.702;9.326;2022-10-23T04:55:56;11.80;99.90
7844;DHT22;3967;48.702;9.326;2022-10-23T04:58:23;11.90;99.90
7844;DHT22;3967;48.702;9.326;2022-10-23T05:00:51;11.90;99.90
7844;DHT22;3967;48.702;9.326;2022-10-23T05:03:18;11.90;99.90
7844;DHT22;3967;48.702;9.326;2022-10-23T05:05:45;11.80;99.90
7844;DHT22;3967;48.702;9.326;2022-10-23T05:08:12;11.80;99.90
7844;DHT22;3967;48.702;9.326;2022-10-23T05:10:43;11.80;99.90
7844;DHT22;3967;48.702;9.326;2022-10-23T05:13:10;11.80;99.90
7844;DHT22;3967;48.702;9.326;2022-10-23T05:15:36;11.80;99.90
7844;DHT22;3967;48.702;9.326;2022-10-23T05:20:45;11.80;99.90
7844;DHT22;3967;48.702;9.326;2022-10-23T05:23:17;11.80;99.90
7844;DHT22;3967;48.702;9.326;2022-10-23T05:25:46;11.80;99.90
7844;DHT22;3967;48.702;9.326;2022-10-23T05:28:12;11.80;99.90
7844;DHT22;3967;48.702;9.326;2022-10-23T05:30:39;11.70;99.90
7844;DHT22;3967;48.702;9.326;2022-10-23T05:33:08;11.70;99.90
7844;DHT22;3967;48.702;9.326;2022-10-23T05:35:35;11.70;99.90
7844;DHT22;3967;48.702;9.326;2022-10-23T05:38:04;11.80;99.90
7844;DHT22;3967;48.702;9.326;2022-10-23T05:40:32;11.80;99.90
7844;DHT22;3967;48.702;9.326;2022-10-23T05:42:58;11.80;99.90
7844;DHT22;3967;48.702;9.326;2022-10-23T05:45:25;11.60;99.90
7844;DHT22;3967;48.702;9.326;2022-10-23T05:47:52;11.70;99.90
7844;DHT22;3967;48.702;9.326;2022-10-23T05:50:20;11.60;99.90
7844;DHT22;3967;48.702;9.326;2022-10-23T05:52:47;11.40;99.90
7844;DHT22;3967;48.702;9.326;2022-10-23T05:55:15;11.30;99.90
7844;DHT22;3967;48.702;9.326;2022-10-23T05:57:41;11.50;99.90
7844;DHT22;3967;48.702;9.326;2022-10-23T06:00:09;11.50;99.90
7844;DHT22;3967;48.702;9.326;2022-10-23T06:02:36;11.50;99.90
7844;DHT22;3967;48.702;9.326;2022-10-23T06:05:03;11.50;99.90
7844;DHT22;3967;48.702;9.326;2022-10-23T06:07:29;11.50;99.90
7844;DHT22;3967;48.702;9.326;2022-10-23T06:10:01;11.50;99.90
7844;DHT22;3967;48.702;9.326;2022-10-23T06:12:28;11.30;99.90
7844;DHT22;3967;48.702;9.326;2022-10-23T06:14:56;11.20;99.90
7844;DHT22;3967;48.702;9.326;2022-10-23T06:17:23;11.20;99.90
7844;DHT22;3967;48.702;9.326;2022-10-23T06:19:49;11.00;99.90
7844;DHT22;3967;48.702;9.326;2022-10-23T06:22:16;11.00;99.90
7844;DHT22;3967;48.702;9.326;2022-10-23T06:24:43;11.00;99.90
7844;DHT22;3967;48.702;9.326;2022-10-23T06:27:09;11.00;99.90
7844;DHT22;3967;48.702;9.326;2022-10-23T06:29:39;11.20;99.90
7844;DHT22;3967;48.702;9.326;2022-10-23T06:32:07;11.30;99.90
7844;DHT22;3967;48.702;9.326;2022-10-23T06:34:33;11.30;99.90
7844;DHT22;3967;48.702;9.326;2022-10-23T06:37:00;11.30;99.90
7844;DHT22;3967;48.702;9.326;2022-10-23T06:39:27;11.30;99.90
7844;DHT22;3967;48.702;9.326;2022-10-23T06:41:57;11.20;99.90
7844;DHT22;3967;48.702;9.326;2022-10-23T06:44:24;11.20;99.90
7844;DHT22;3967;48.702;9.326;2022-10-23T06:46:50;11.20;99.90
7844;DHT22;3967;48.702;9.326;2022-10-23T06:49:17;11.20;99.90
7844;DHT22;3967;48.702;9.326;2022-10-23T06:51:44;11.10;99.90
7844;DHT22;3967;48.702;9.326;2022-10-23T06:54:10;11.20;99.90
7844;DHT22;3967;48.702;9.326;2022-10-23T06:56:37;11.30;99.90
7844;DHT22;3967;48.702;9.326;2022-10-23T06:59:04;11.30;99.90
7844;DHT22;3967;48.702;9.326;2022-10-23T07:01:34;11.30;99.90
7844;DHT22;3967;48.702;9.326;2022-10-23T07:04:01;11.30;99.90
7844;DHT22;3967;48.702;9.326;2022-10-23T07:06:28;11.30;99.90
7844;DHT22;3967;48.702;9.326;2022-10-23T07:08:55;11.40;99.90
7844;DHT22;3967;48.702;9.326;2022-10-23T07:11:21;11.50;99.90
7844;DHT22;3967;48.702;9.326;2022-10-23T07:13:48;11.40;99.90
7844;DHT22;3967;48.702;9.326;2022-10-23T07:16:18;11.40;99.90
7844;DHT22;3967;48.702;9.326;2022-10-23T07:18:46;11.50;99.90
7844;DHT22;3967;48.702;9.326;2022-10-23T07:21:13;11.60;99.90
7844;DHT22;3967;48.702;9.326;2022-10-23T07:23:40;11.50;99.90
7844;DHT22;3967;48.702;9.326;2022-10-23T07:26:09;11.70;99.90
7844;DHT22;3967;48.702;9.326;2022-10-23T07:28:36;11.70;99.90
7844;DHT22;3967;48.702;9.326;2022-10-23T07:31:04;11.60;99.90
7844;DHT22;3967;48.702;9.326;2022-10-23T07:33:30;11.70;99.90
7844;DHT22;3967;48.702;9.326;2022-10-23T07:35:57;11.80;99.90
7844;DHT22;3967;48.702;9.326;2022-10-23T07:38:24;11.80;99.90
7844;DHT22;3967;48.702;9.326;2022-10-23T07:40:50;11.90;99.90
7844;DHT22;3967;48.702;9.326;2022-10-23T07:43:17;11.80;99.90
7844;DHT22;3967;48.702;9.326;2022-10-23T07:45:47;11.80;99.90
7844;DHT22;3967;48.702;9.326;2022-10-23T07:48:14;11.90;99.90
7844;DHT22;3967;48.702;9.326;2022-10-23T07:50:41;11.90;99.90
7844;DHT22;3967;48.702;9.326;2022-10-23T07:53:16;11.90;99.90
7844;DHT22;3967;48.702;9.326;2022-10-23T07:55:54;11.90;99.90
7844;DHT22;3967;48.702;9.326;2022-10-23T07:58:21;11.90;99.90
7844;DHT22;3967;48.702;9.326;2022-10-23T08:00:57;12.10;99.90
7844;DHT22;3967;48.702;9.326;2022-10-23T08:03:30;12.20;99.90
7844;DHT22;3967;48.702;9.326;2022-10-23T08:05:57;12.40;99.90
7844;DHT22;3967;48.702;9.326;2022-10-23T08:08:25;12.50;99.90
7844;DHT22;3967;48.702;9.326;2022-10-23T08:10:53;12.50;99.90
7844;DHT22;3967;48.702;9.326;2022-10-23T08:13:21;12.70;99.90
7844;DHT22;3967;48.702;9.326;2022-10-23T08:15:49;12.80;99.90
7844;DHT22;3967;48.702;9.326;2022-10-23T08:18:16;12.90;99.90
7844;DHT22;3967;48.702;9.326;2022-10-23T08:20:45;13.00;99.90
7844;DHT22;3967;48.702;9.326;2022-10-23T08:23:15;13.10;99.90
7844;DHT22;3967;48.702;9.326;2022-10-23T08:25:43;13.30;99.90
7844;DHT22;3967;48.702;9.326;2022-10-23T08:28:11;13.40;99.90
7844;DHT22;3967;48.702;9.326;2022-10-23T08:30:37;13.50;99.90
7844;DHT22;3967;48.702;9.326;2022-10-23T08:33:05;13.70;99.90
7844;DHT22;3967;48.702;9.326;2022-10-23T08:35:36;13.80;99.90
7844;DHT22;3967;48.702;9.326;2022-10-23T08:38:04;14.10;99.90
7844;DHT22;3967;48.702;9.326;2022-10-23T08:40:31;14.20;99.90
7844;DHT22;3967;48.702;9.326;2022-10-23T08:48:32;14.40;99.90
7844;DHT22;3967;48.702;9.326;2022-10-23T08:51:21;14.40;99.90
7844;DHT22;3967;48.702;9.326;2022-10-23T08:54:18;14.40;99.90
7844;DHT22;3967;48.702;9.326;2022-10-23T08:56:54;14.30;99.90
7844;DHT22;3967;48.702;9.326;2022-10-23T09:02:27;14.40;99.90
7844;DHT22;3967;48.702;9.326;2022-10-23T09:04:57;14.40;99.90
7844;DHT22;3967;48.702;9.326;2022-10-23T09:13:24;14.80;99.90
7844;DHT22;3967;48.702;9.326;2022-10-23T09:16:18;15.10;99.90
7844;DHT22;3967;48.702;9.326;2022-10-23T09:18:48;15.30;99.90
7844;DHT22;3967;48.702;9.326;2022-10-23T09:21:15;15.50;99.90
7844;DHT22;3967;48.702;9.326;2022-10-23T09:23:42;15.60;99.90
7844;DHT22;3967;48.702;9.326;2022-10-23T09:26:14;15.80;99.90
7844;DHT22;3967;48.702;9.326;2022-10-23T09:28:47;15.90;99.90
7844;DHT22;3967;48.702;9.326;2022-10-23T09:31:15;16.00;99.90
7844;DHT22;3967;48.702;9.326;2022-10-23T09:33:53;16.10;99.90
7844;DHT22;3967;48.702;9.326;2022-10-23T09:36:20;16.30;99.90
7844;DHT22;3967;48.702;9.326;2022-10-23T09:38:51;16.40;99.90
7844;DHT22;3967;48.702;9.326;2022-10-23T09:41:38;16.60;99.90
7844;DHT22;3967;48.702;9.326;2022-10-23T09:44:24;16.70;99.90
7844;DHT22;3967;48.702;9.326;2022-10-23T09:46:58;16.80;99.90
7844;DHT22;3967;48.702;9.326;2022-10-23T09:49:30;16.90;97.90
7844;DHT22;3967;48.702;9.326;2022-10-23T09:54:35;17.10;95.60
7844;DHT22;3967;48.702;9.326;2022-10-23T09:57:22;17.20;96.30
7844;DHT22;3967;48.702;9.326;2022-10-23T09:59:56;17.30;95.30
7844;DHT22;3967;48.702;9.326;2022-10-23T10:02:30;17.30;93.60
7844;DHT22;3967;48.702;9.326;2022-10-23T10:04:58;17.40;92.40
7844;DHT22;3967;48.702;9.326;2022-10-23T10:07:27;17.50;93.40
7844;DHT22;3967;48.702;9.326;2022-10-23T10:09:59;17.60;93.30
7844;DHT22;3967;48.702;9.326;2022-10-23T10:12:49;17.70;91.70
7844;DHT22;3967;48.702;9.326;2022-10-23T10:15:37;17.70;91.80
7844;DHT22;3967;48.702;9.326;2022-10-23T10:18:10;17.80;91.40
7844;DHT22;3967;48.702;9.326;2022-10-23T10:20:58;17.90;91.00
7844;DHT22;3967;48.702;9.326;2022-10-23T10:29:19;18.20;90.60
7844;DHT22;3967;48.702;9.326;2022-10-23T10:45:52;18.60;90.20
7844;DHT22;3967;48.702;9.326;2022-10-23T10:48:36;18.60;90.10
7844;DHT22;3967;48.702;9.326;2022-10-23T10:56:35;18.70;89.60
7844;DHT22;3967;48.702;9.326;2022-10-23T11:04:23;18.80;88.10
7844;DHT22;3967;48.702;9.326;2022-10-23T11:06:54;18.90;89.90
7844;DHT22;3967;48.702;9.326;2022-10-23T11:09:27;19.00;90.10
7844;DHT22;3967;48.702;9.326;2022-10-23T11:11:54;18.90;90.30
7844;DHT22;3967;48.702;9.326;2022-10-23T11:14:26;19.00;90.80
7844;DHT22;3967;48.702;9.326;2022-10-23T11:17:14;19.10;90.10
7844;DHT22;3967;48.702;9.326;2022-10-23T11:28:12;19.30;90.10
7844;DHT22;3967;48.702;9.326;2022-10-23T11:42:11;19.30;91.00
7844;DHT22;3967;48.702;9.326;2022-10-23T11:44:45;19.10;91.20
7844;DHT22;3967;48.702;9.326;2022-10-23T11:47:33;19.10;91.80
7844;DHT22;3967;48.702;9.326;2022-10-23T11:52:38;19.30;91.90
7844;DHT22;3967;48.702;9.326;2022-10-23T11:55:19;19.30;92.30
7844;DHT22;3967;48.702;9.326;2022-10-23T11:58:09;19.30;92.10
7844;DHT22;3967;48.702;9.326;2022-10-23T12:00:59;19.30;92.70
7844;DHT22;3967;48.702;9.326;2022-10-23T12:03:40;19.30;92.70
7844;DHT22;3967;48.702;9.326;2022-10-23T12:12:12;19.60;93.30
7844;DHT22;3967;48.702;9.326;2022-10-23T12:17:35;19.80;92.30
7844;DHT22;3967;48.702;9.326;2022-10-23T12:25:59;20.00;92.80
7844;DHT22;3967;48.702;9.326;2022-10-23T12:31:19;20.10;91.90
7844;DHT22;3967;48.702;9.326;2022-10-23T12:36:56;20.10;91.40
7844;DHT22;3967;48.702;9.326;2022-10-23T12:39:33;20.20;91.10
7844;DHT22;3967;48.702;9.326;2022-10-23T12:42:02;20.40;91.10
7844;DHT22;3967;48.702;9.326;2022-10-23T12:44:30;20.60;91.40
7844;DHT22;3967;48.702;9.326;2022-10-23T12:46:59;20.30;90.80
7844;DHT22;3967;48.702;9.326;2022-10-23T12:49:29;20.40;90.40
7844;DHT22;3967;48.702;9.326;2022-10-23T12:52:00;20.50;90.90
7844;DHT22;3967;48.702;9.326;2022-10-23T12:54:29;20.60;89.50
7844;DHT22;3967;48.702;9.326;2022-10-23T12:56:56;20.60;88.60
7844;DHT22;3967;48.702;9.326;2022-10-23T12:59:36;20.60;87.30
7844;DHT22;3967;48.702;9.326;2022-10-23T13:04:48;20.80;87.70
7844;DHT22;3967;48.702;9.326;2022-10-23T13:07:18;20.90;87.50
7844;DHT22;3967;48.702;9.326;2022-10-23T13:09:46;21.00;87.60
7844;DHT22;3967;48.702;9.326;2022-10-23T13:12:20;21.00;88.00
7844;DHT22;3967;48.702;9.326;2022-10-23T13:17:37;21.20;89.50
7844;DHT22;3967;48.702;9.326;2022-10-23T13:22:45;21.10;87.00
7844;DHT22;3967;48.702;9.326;2022-10-23T13:25:29;21.10;88.70
7844;DHT22;3967;48.702;9.326;2022-10-23T13:33:35;21.40;84.80
7844;DHT22;3967;48.702;9.326;2022-10-23T13:38:36;21.30;85.90
7844;DHT22;3967;48.702;9.326;2022-10-23T13:41:07;21.40;86.50
7844;DHT22;3967;48.702;9.326;2022-10-23T13:43:36;21.50;86.20
7844;DHT22;3967;48.702;9.326;2022-10-23T13:46:03;21.60;86.30
7844;DHT22;3967;48.702;9.326;2022-10-23T13:48:30;21.50;85.50
7844;DHT22;3967;48.702;9.326;2022-10-23T13:51:04;21.60;85.90
7844;DHT22;3967;48.702;9.326;2022-10-23T13:53:32;21.60;86.40
7844;DHT22;3967;48.702;9.326;2022-10-23T13:55:59;21.70;88.00
7844;DHT22;3967;48.702;9.326;2022-10-23T13:58:25;21.70;87.10
7844;DHT22;3967;48.702;9.326;2022-10-23T14:00:52;21.70;87.30
7844;DHT22;3967;48.702;9.326;2022-10-23T14:03:19;21.80;86.70
7844;DHT22;3967;48.702;9.326;2022-10-23T14:05:50;21.80;85.30
7844;DHT22;3967;48.702;9.326;2022-10-23T14:08:17;21.90;86.00
7844;DHT22;3967;48.702;9.326;2022-10-23T14:10:44;21.80;90.00
7844;DHT22;3967;48.702;9.326;2022-10-23T14:13:11;21.80;88.80
7844;DHT22;3967;48.702;9.326;2022-10-23T14:15:38;21.80;87.70
7844;DHT22;3967;48.702;9.326;2022-10-23T14:18:05;21.80;89.40
7844;DHT22;3967;48.702;9.326;2022-10-23T14:20:34;21.70;90.00
7844;DHT22;3967;48.702;9.326;2022-10-23T14:23:03;21.80;89.80
7844;DHT22;3967;48.702;9.326;2022-10-23T14:25:30;21.70;90.40
7844;DHT22;3967;48.702;9.326;2022-10-23T14:27:56;21.60;90.50
7844;DHT22;3967;48.702;9.326;2022-10-23T14:30:23;21.70;90.50
7844;DHT22;3967;48.702;9.326;2022-10-23T14:32:51;21.60;90.50
7844;DHT22;3967;48.702;9.326;2022-10-23T14:35:18;21.60;91.60
7844;DHT22;3967;48.702;9.326;2022-10-23T14:37:45;21.50;92.10
7844;DHT22;3967;48.702;9.326;2022-10-23T14:40:12;21.50;92.70
7844;DHT22;3967;48.702;9.326;2022-10-23T14:42:39;21.50;92.60
7844;DHT22;3967;48.702;9.326;2022-10-23T14:45:06;21.40;93.10
7844;DHT22;3967;48.702;9.326;2022-10-23T14:47:33;21.40;93.20
7844;DHT22;3967;48.702;9.326;2022-10-23T14:49:59;21.40;93.20
7844;DHT22;3967;48.702;9.326;2022-10-23T14:52:26;21.40;93.60
7844;DHT22;3967;48.702;9.326;2022-10-23T14:54:53;21.30;93.90
7844;DHT22;3967;48.702;9.326;2022-10-23T14:57:20;21.20;93.80
7844;DHT22;3967;48.702;9.326;2022-10-23T14:59:48;21.10;94.00
7844;DHT22;3967;48.702;9.326;2022-10-23T15:02:16;21.10;94.20
7844;DHT22;3967;48.702;9.326;2022-10-23T15:04:43;21.10;94.60
7844;DHT22;3967;48.702;9.326;2022-10-23T15:07:10;21.10;93.40
7844;DHT22;3967;48.702;9.326;2022-10-23T15:09:36;20.90;92.70
7844;DHT22;3967;48.702;9.326;2022-10-23T15:12:05;21.00;93.00
7844;DHT22;3967;48.702;9.326;2022-10-23T15:14:33;21.10;92.40
7844;DHT22;3967;48.702;9.326;2022-10-23T15:17:00;21.10;92.30
7844;DHT22;3967;48.702;9.326;2022-10-23T15:19:27;21.10;92.80
7844;DHT22;3967;48.702;9.326;2022-10-23T15:21:53;21.10;92.50
7844;DHT22;3967;48.702;9.326;2022-10-23T15:24:20;21.10;92.20
7844;DHT22;3967;48.702;9.326;2022-10-23T15:26:47;21.10;92.60
7844;DHT22;3967;48.702;9.326;2022-10-23T15:29:15;21.00;92.60
7844;DHT22;3967;48.702;9.326;2022-10-23T15:31:48;21.10;93.20
7844;DHT22;3967;48.702;9.326;2022-10-23T15:34:19;21.00;93.00
7844;DHT22;3967;48.702;9.326;2022-10-23T15:36:47;21.00;93.30
7844;DHT22;3967;48.702;9.326;2022-10-23T15:39:16;20.90;93.60
7844;DHT22;3967;48.702;9.326;2022-10-23T15:41:43;20.90;93.90
7844;DHT22;3967;48.702;9.326;2022-10-23T15:44:14;20.80;92.00
7844;DHT22;3967;48.702;9.326;2022-10-23T15:46:41;20.80;92.90
7844;DHT22;3967;48.702;9.326;2022-10-23T15:49:07;20.80;92.90
7844;DHT22;3967;48.702;9.326;2022-10-23T15:51:35;20.80;93.00
7844;DHT22;3967;48.702;9.326;2022-10-23T15:54:04;20.60;93.30
7844;DHT22;3967;48.702;9.326;2022-10-23T15:56:32;20.60;93.40
7844;DHT22;3967;48.702;9.326;2022-10-23T15:58:59;20.50;94.00
7844;DHT22;3967;48.702;9.326;2022-10-23T16:01:29;20.40;93.70
7844;DHT22;3967;48.702;9.326;2022-10-23T16:03:56;20.30;93.50
7844;DHT22;3967;48.702;9.326;2022-10-23T16:06:22;20.30;93.30
7844;DHT22;3967;48.702;9.326;2022-10-23T16:08:49;20.30;93.20
7844;DHT22;3967;48.702;9.326;2022-10-23T16:11:20;20.20;93.40
7844;DHT22;3967;48.702;9.326;2022-10-23T16:13:47;20.10;93.80
7844;DHT22;3967;48.702;9.326;2022-10-23T16:16:15;20.10;93.80
7844;DHT22;3967;48.702;9.326;2022-10-23T16:18:43;20.10;94.10
7844;DHT22;3967;48.702;9.326;2022-10-23T16:21:21;20.10;94.40
7844;DHT22;3967;48.702;9.326;2022-10-23T16:23:49;20.10;94.70
7844;DHT22;3967;48.702;9.326;2022-10-23T16:26:17;20.00;94.90
7844;DHT22;3967;48.702;9.326;2022-10-23T16:28:44;20.00;95.40
7844;DHT22;3967;48.702;9.326;2022-10-23T16:31:18;20.00;95.40
7844;DHT22;3967;48.702;9.326;2022-10-23T16:33:47;20.00;95.70
7844;DHT22;3967;48.702;9.326;2022-10-23T16:36:14;19.90;95.90
7844;DHT22;3967;48.702;9.326;2022-10-23T16:38:41;19.90;96.10
7844;DHT22;3967;48.702;9.326;2022-10-23T16:41:07;19.90;96.00
7844;DHT22;3967;48.702;9.326;2022-10-23T16:43:34;19.70;96.20
7844;DHT22;3967;48.702;9.326;2022-10-23T16:46:06;19.70;96.60
7844;DHT22;3967;48.702;9.326;2022-10-23T16:48:34;19.70;96.90
7844;DHT22;3967;48.702;9.326;2022-10-23T16:51:09;19.60;97.10
7844;DHT22;3967;48.702;9.326;2022-10-23T16:53:36;19.60;97.40
7844;DHT22;3967;48.702;9.326;2022-10-23T16:56:04;19.60;97.60
7844;DHT22;3967;48.702;9.326;2022-10-23T16:58:31;19.60;97.60
7844;DHT22;3967;48.702;9.326;2022-10-23T17:01:06;19.60;97.40
7844;DHT22;3967;48.702;9.326;2022-10-23T17:03:36;19.50;97.20
7844;DHT22;3967;48.702;9.326;2022-10-23T17:06:05;19.50;97.40
7844;DHT22;3967;48.702;9.326;2022-10-23T17:08:36;19.60;97.30
7844;DHT22;3967;48.702;9.326;2022-10-23T17:13:31;19.60;96.50
7844;DHT22;3967;48.702;9.326;2022-10-23T17:18:34;19.50;97.00
7844;DHT22;3967;48.702;9.326;2022-10-23T17:21:07;19.60;96.70
7844;DHT22;3967;48.702;9.326;2022-10-23T17:23:34;19.60;96.70
7844;DHT22;3967;48.702;9.326;2022-10-23T17:26:01;19.50;97.50
7844;DHT22;3967;48.702;9.326;2022-10-23T17:28:31;19.50;97.50
7844;DHT22;3967;48.702;9.326;2022-10-23T17:31:03;19.40;97.90
7844;DHT22;3967;48.702;9.326;2022-10-23T17:33:30;19.40;97.80
7844;DHT22;3967;48.702;9.326;2022-10-23T17:36:00;19.40;97.60
7844;DHT22;3967;48.702;9.326;2022-10-23T17:38:28;19.40;97.40
7844;DHT22;3967;48.702;9.326;2022-10-23T17:40:55;19.20;98.80
7844;DHT22;3967;48.702;9.326;2022-10-23T17:43:21;19.20;99.30
7844;DHT22;3967;48.702;9.326;2022-10-23T17:45:48;19.10;99.70
7844;DHT22;3967;48.702;9.326;2022-10-23T17:48:15;19.10;99.30
7844;DHT22;3967;48.702;9.326;2022-10-23T17:50:42;19.00;99.60
7844;DHT22;3967;48.702;9.326;2022-10-23T17:53:09;19.10;99.40
7844;DHT22;3967;48.702;9.326;2022-10-23T17:55:37;19.10;99.20
7844;DHT22;3967;48.702;9.326;2022-10-23T17:58:08;19.00;99.50
7844;DHT22;3967;48.702;9.326;2022-10-23T18:00:36;18.90;99.30
7844;DHT22;3967;48.702;9.326;2022-10-23T18:03:03;19.00;99.20
7844;DHT22;3967;48.702;9.326;2022-10-23T18:05:31;19.00;99.00
7844;DHT22;3967;48.702;9.326;2022-10-23T18:07:58;18.90;99.20
7844;DHT22;3967;48.702;9.326;2022-10-23T18:10:26;18.90;99.30
7844;DHT22;3967;48.702;9.326;2022-10-23T18:12:53;19.00;99.10
7844;DHT22;3967;48.702;9.326;2022-10-23T18:15:20;19.00;99.10
7844;DHT22;3967;48.702;9.326;2022-10-23T18:17:46;18.90;99.40
7844;DHT22;3967;48.702;9.326;2022-10-23T18:20:14;18.80;99.50
7844;DHT22;3967;48.702;9.326;2022-10-23T18:22:41;18.70;99.90
7844;DHT22;3967;48.702;9.326;2022-10-23T18:25:08;18.80;99.70
7844;DHT22;3967;48.702;9.326;2022-10-23T18:27:35;18.70;98.70
7844;DHT22;3967;48.702;9.326;2022-10-23T18:30:02;18.80;97.30
7844;DHT22;3967;48.702;9.326;2022-10-23T18:32:29;18.90;95.90
7844;DHT22;3967;48.702;9.326;2022-10-23T18:34:56;19.00;95.40